Heroic Leader — C6ZD2 — position and weather

sailwx.info

Track history (hours):
 
Tides and Currents Weather Stations Pressure Air Temp Water Temp Dewpoint Dewpoint Depression Visibility Wind Speed Wind Dir Waves Ship Positions

Heroic Leader

Last reported at 2015-Mar-28 05:28 UTC. Time now 2015-Mar-29 07:29 UTC.
Position N 39°22' W 073°56'.

Length 200 m; draft 9.2 m.

Type: Cargo ship. MMSI: 311052700.

Date/timePositionNaut miles runAvg speedWind from/ knotsBaromVisibWave heightAir tempDewpointWater temp
2015-Mar-28 05:28N 39°22' W 073°56'1415.6
2015-Mar-28 04:33N 39°36' W 073°53'1615.7
2015-Mar-28 03:33N 39°52' W 073°51'1615.8
2015-Mar-28 02:33N 40°08' W 073°50'1010.2
2015-Mar-28 01:33N 40°18' W 073°49'9 9.1
2015-Mar-28 00:33N 40°27' W 073°51'1110.6
2015-Mar-27 23:33N 40°33' W 074°02'8 8.0
2015-Mar-27 22:33N 40°39' W 074°09'2 2.4
2015-Mar-27 21:32N 40°42' W 074°09'0 0.0
2015-Mar-27 20:32N 40°42' W 074°09'0 0.0
2015-Mar-27 19:32N 40°42' W 074°09'0 0.0
2015-Mar-27 18:32N 40°42' W 074°09'0 0.0
2015-Mar-27 17:32N 40°42' W 074°09'0 0.0
2015-Mar-27 16:32N 40°42' W 074°09'0 0.0
2015-Mar-27 15:32N 40°42' W 074°09'0 0.0
2015-Mar-27 14:32N 40°42' W 074°09'0 0.0
2015-Mar-27 13:33N 40°42' W 074°09'0 0.0
2015-Mar-27 12:32N 40°42' W 074°09'0 0.0
2015-Mar-27 11:32N 40°42' W 074°09'0 0.0
2015-Mar-27 10:26N 40°42' W 074°09'0 0.0
2015-Mar-27 09:32N 40°42' W 074°09'0 0.0
2015-Mar-27 08:32N 40°42' W 074°09'0 0.0
2015-Mar-27 07:32N 40°42' W 074°09'0 0.0
2015-Mar-27 06:32N 40°42' W 074°09'0 0.0
2015-Mar-27 05:32N 40°42' W 074°09'0 0.0
2015-Mar-27 04:32N 40°42' W 074°09'0 0.0
2015-Mar-27 03:32N 40°42' W 074°09'0 0.0
2015-Mar-27 02:32N 40°42' W 074°09'0 0.0
2015-Mar-27 01:32N 40°42' W 074°09'0 0.0
2015-Mar-27 00:32N 40°42' W 074°09'0 0.0
2015-Mar-26 23:32N 40°42' W 074°09'3 2.8
2015-Mar-26 22:33N 40°39' W 074°09'6 5.7
2015-Mar-26 21:33N 40°36' W 074°02'1111.1
2015-Mar-26 20:33N 40°28' W 073°52'7 6.5
2015-Mar-26 19:28N 40°22' W 073°47'9 9.7
2015-Mar-26 18:33N 40°13' W 073°45'3014.3
2015-Mar-26 16:25N 39°43' W 073°42'1516.5
2015-Mar-26 15:31N 39°30' W 073°52'6213.9
2015-Mar-26 11:04N 38°46' W 074°47'5 9.5
2015-Mar-26 10:33N 38°46' W 074°53'8 8.5
2015-Mar-26 09:33N 38°48' W 075°03'1414.1
2015-Mar-26 08:33N 39°02' W 075°09'1717.3
2015-Mar-26 07:33N 39°17' W 075°21'1515.2
2015-Mar-26 06:33N 39°28' W 075°34'7 6.6
2015-Mar-26 05:33N 39°33' W 075°40'9 9.5
2015-Mar-26 04:33N 39°32' W 075°52'1212.1
2015-Mar-26 03:33N 39°24' W 076°04'1212.3
2015-Mar-26 02:33N 39°15' W 076°14'1110.5
2015-Mar-26 01:33N 39°11' W 076°27'7 7.2
2015-Mar-26 00:33N 39°15' W 076°35'0 0.0
2015-Mar-25 23:33N 39°15' W 076°35'0 0.0
2015-Mar-25 22:33N 39°15' W 076°35'0 0.0
2015-Mar-25 21:33N 39°15' W 076°35'0 0.0
2015-Mar-25 20:33N 39°15' W 076°35'0 0.0
2015-Mar-25 19:30N 39°15' W 076°35'0 0.0
2015-Mar-25 18:33N 39°15' W 076°35'0 0.0
2015-Mar-25 17:33N 39°15' W 076°35'0 0.0
2015-Mar-25 16:33N 39°15' W 076°35'0 0.0
2015-Mar-25 15:27N 39°15' W 076°35'0 0.0
2015-Mar-25 14:33N 39°15' W 076°35'0 0.0
2015-Mar-25 13:33N 39°15' W 076°35'0 0.0
2015-Mar-25 12:33N 39°15' W 076°35'0 0.0
2015-Mar-25 11:32N 39°15' W 076°35'0 0.0
2015-Mar-25 10:33N 39°15' W 076°35'1 0.8
2015-Mar-25 09:33N 39°15' W 076°34'1 1.2
2015-Mar-25 08:33N 39°15' W 076°32'0 0.0
2015-Mar-25 07:33N 39°15' W 076°32'0 0.0
2015-Mar-25 06:33N 39°15' W 076°32'0 0.0
2015-Mar-25 05:33N 39°15' W 076°32'0 0.0
2015-Mar-25 04:33N 39°15' W 076°32'0 0.0
2015-Mar-25 03:33N 39°15' W 076°32'0 0.0
2015-Mar-25 02:33N 39°15' W 076°32'0 0.0
2015-Mar-25 01:33N 39°15' W 076°32'0 0.0
2015-Mar-25 00:33N 39°15' W 076°32'0 0.0
2015-Mar-24 23:33N 39°15' W 076°32'0 0.0
2015-Mar-24 22:33N 39°15' W 076°32'0 0.0
2015-Mar-24 21:33N 39°15' W 076°32'0 0.0
2015-Mar-24 20:30N 39°15' W 076°32'0 0.0
2015-Mar-24 19:33N 39°15' W 076°32'0 0.0
2015-Mar-24 18:30N 39°15' W 076°32'0 0.0
2015-Mar-24 17:33N 39°15' W 076°32'0 0.0
2015-Mar-24 16:30N 39°15' W 076°32'0 0.0
2015-Mar-24 15:33N 39°15' W 076°32'0 0.0
2015-Mar-24 14:30N 39°15' W 076°32'0 0.0
2015-Mar-24 13:30N 39°15' W 076°32'0 0.0
2015-Mar-24 12:30N 39°15' W 076°32'0 0.0
2015-Mar-24 11:33N 39°15' W 076°32'0 0.0
2015-Mar-24 10:33N 39°15' W 076°32'0 0.0
2015-Mar-24 09:33N 39°15' W 076°32'0 0.0
2015-Mar-24 08:33N 39°15' W 076°32'0 0.0
2015-Mar-24 07:33N 39°15' W 076°32'0 0.0
2015-Mar-24 06:33N 39°15' W 076°32'0 0.0
2015-Mar-24 05:33N 39°15' W 076°32'0 0.0
2015-Mar-24 04:33N 39°15' W 076°32'0 0.0
2015-Mar-24 03:33N 39°15' W 076°32'0 0.0
2015-Mar-24 02:33N 39°15' W 076°32'0 0.0
2015-Mar-24 01:33N 39°15' W 076°32'0 0.0
2015-Mar-24 00:33N 39°15' W 076°32'2 1.6
2015-Mar-23 23:33N 39°13' W 076°32'8 8.0
2015-Mar-23 22:34N 39°08' W 076°24'1313.4
2015-Mar-23 21:33N 38°55' W 076°25'0 0.4
2015-Mar-23 20:33N 38°54' W 076°25'0 0.0
2015-Mar-23 19:33N 38°54' W 076°25'0 0.0
2015-Mar-23 18:33N 38°54' W 076°25'0 0.0
2015-Mar-23 17:33N 38°54' W 076°25'0 0.0
2015-Mar-23 16:33N 38°54' W 076°25'0 0.0
2015-Mar-23 15:27N 38°54' W 076°25'0 0.0
2015-Mar-23 14:33N 38°54' W 076°25'0 0.0
2015-Mar-23 13:33N 38°54' W 076°25'0 0.0
2015-Mar-23 12:24N 38°54' W 076°25'0 0.0
2015-Mar-23 11:33N 38°54' W 076°25'0 0.0
2015-Mar-23 10:27N 38°54' W 076°25'0 0.0
2015-Mar-23 09:27N 38°54' W 076°25'0 0.0
2015-Mar-23 08:33N 38°54' W 076°25'0 0.0
2015-Mar-23 07:33N 38°54' W 076°25'0 0.0
2015-Mar-23 06:33N 38°54' W 076°25'0 0.0
2015-Mar-23 05:33N 38°54' W 076°25'0 0.0
2015-Mar-23 04:30N 38°54' W 076°25'0 0.0
2015-Mar-23 03:33N 38°54' W 076°25'0 0.0
2015-Mar-23 02:33N 38°54' W 076°25'0 0.0
2015-Mar-23 01:33N 38°54' W 076°25'0 0.0
2015-Mar-22 23:30N 38°54' W 076°25'0 0.0
2015-Mar-22 22:33N 38°54' W 076°25'0 0.0
2015-Mar-22 21:21N 38°54' W 076°25'0 0.0
2015-Mar-22 20:33N 38°54' W 076°25'0 0.0
2015-Mar-22 19:33N 38°54' W 076°25'0 0.0
2015-Mar-22 18:33N 38°54' W 076°25'0 0.0
2015-Mar-22 17:30N 38°54' W 076°25'0 0.0
2015-Mar-22 16:33N 38°54' W 076°25'0 0.0
2015-Mar-22 15:30N 38°54' W 076°25'0 0.0
2015-Mar-22 14:33N 38°54' W 076°25'0 0.0
2015-Mar-22 13:33N 38°54' W 076°25'0 0.1
2015-Mar-22 12:33N 38°54' W 076°25'0 0.0
2015-Mar-22 11:30N 38°54' W 076°25'0 0.0
2015-Mar-22 10:33N 38°54' W 076°25'0 0.1
2015-Mar-22 09:30N 38°54' W 076°25'0 0.0
2015-Mar-22 08:33N 38°54' W 076°25'0 0.0
2015-Mar-22 07:30N 38°54' W 076°25'0 0.0
2015-Mar-22 06:33N 38°54' W 076°25'0 0.0
2015-Mar-22 05:33N 38°54' W 076°25'0 0.0
2015-Mar-22 04:33N 38°54' W 076°25'0 0.1
2015-Mar-22 03:33N 38°54' W 076°25'0 0.0
2015-Mar-21 18:30N 38°54' W 076°25'0 0.0
2015-Mar-21 17:18N 38°54' W 076°25'0 0.0
2015-Mar-21 16:18N 38°54' W 076°25'0 0.0
2015-Mar-21 14:24N 38°54' W 076°25'0 0.0
2015-Mar-21 13:33N 38°54' W 076°25'0 0.0
2015-Mar-21 12:30N 38°54' W 076°25'0 0.0
2015-Mar-21 11:33N 38°54' W 076°25'0 0.0
2015-Mar-21 10:33N 38°54' W 076°25'0 0.0
2015-Mar-21 09:33N 38°54' W 076°25'0 0.0
2015-Mar-21 08:33N 38°54' W 076°25'0 0.0
2015-Mar-21 07:33N 38°54' W 076°25'0 0.0
2015-Mar-21 06:30N 38°54' W 076°25'0 0.0
2015-Mar-21 05:24N 38°54' W 076°25'0 0.0
2015-Mar-21 04:33N 38°54' W 076°25'0 0.0
2015-Mar-21 03:33N 38°54' W 076°25'0 0.0
2015-Mar-21 02:33N 38°54' W 076°25'0 0.0
2015-Mar-21 01:30N 38°54' W 076°25'0 0.0
2015-Mar-21 00:21N 38°54' W 076°25'0 0.0
2015-Mar-20 23:33N 38°54' W 076°25'0 0.0
2015-Mar-20 22:33N 38°54' W 076°25'0 0.0
2015-Mar-20 21:24N 38°54' W 076°25'0 0.1
2015-Mar-20 20:33N 38°54' W 076°25'0 0.0
2015-Mar-20 19:21N 38°54' W 076°25'0 0.0
2015-Mar-20 18:21N 38°54' W 076°25'0 0.0
2015-Mar-20 17:33N 38°54' W 076°25'0 0.0
2015-Mar-20 16:30N 38°54' W 076°25'0 0.0
2015-Mar-20 15:33N 38°54' W 076°25'0 0.0
2015-Mar-20 14:33N 38°54' W 076°25'0 0.0
2015-Mar-20 13:33N 38°54' W 076°25'0 0.0
2015-Mar-20 12:33N 38°54' W 076°25'0 0.0
2015-Mar-20 08:06N 38°54' W 076°25'0 0.0
2015-Mar-20 07:24N 38°54' W 076°25'0 0.1
2015-Mar-20 06:30N 38°54' W 076°25'0 0.1
2015-Mar-20 05:30N 38°54' W 076°25'0 0.0
2015-Mar-20 04:33N 38°54' W 076°25'0 0.0
2015-Mar-20 03:33N 38°54' W 076°25'0 0.0
2015-Mar-20 02:27N 38°54' W 076°25'0 0.0
2015-Mar-20 01:33N 38°54' W 076°25'0 0.0
2015-Mar-20 00:33N 38°54' W 076°25'0 0.0
2015-Mar-19 23:15N 38°54' W 076°25'0 0.0
2015-Mar-19 21:06N 38°54' W 076°25'0 0.0
2015-Mar-19 20:06N 38°54' W 076°25'0 0.1
2015-Mar-19 19:15N 38°54' W 076°25'0 0.0
2015-Mar-19 18:33N 38°54' W 076°25'0 0.0
2015-Mar-19 17:33N 38°54' W 076°25'0 0.0
2015-Mar-19 16:33N 38°54' W 076°25'0 0.0
2015-Mar-19 15:33N 38°54' W 076°25'0 0.0
2015-Mar-19 14:33N 38°54' W 076°25'0 0.0
2015-Mar-19 13:33N 38°54' W 076°25'0 0.0
2015-Mar-19 12:33N 38°54' W 076°25'0 0.0
2015-Mar-19 11:33N 38°54' W 076°25'0 0.0
2015-Mar-19 10:33N 38°54' W 076°25'0 0.0
2015-Mar-19 09:12N 38°54' W 076°25'0 0.0
2015-Mar-19 08:30N 38°54' W 076°25'0 0.0
2015-Mar-19 07:33N 38°54' W 076°25'0 0.0
2015-Mar-19 06:33N 38°54' W 076°25'0 0.0
2015-Mar-19 05:33N 38°54' W 076°25'0 0.0
2015-Mar-19 04:33N 38°54' W 076°25'0 0.0
2015-Mar-19 03:33N 38°54' W 076°25'0 0.0
2015-Mar-19 02:33N 38°54' W 076°25'0 0.0
2015-Mar-19 01:33N 38°54' W 076°25'0 0.0
2015-Mar-19 00:33N 38°54' W 076°25'0 0.0
2015-Mar-18 23:33N 38°54' W 076°25'0 0.0
2015-Mar-18 22:33N 38°54' W 076°25'0 0.0
2015-Mar-18 21:33N 38°54' W 076°25'0 0.0
2015-Mar-18 20:32N 38°54' W 076°25'0 0.0
2015-Mar-18 19:33N 38°54' W 076°25'0 0.0
2015-Mar-18 18:33N 38°54' W 076°25'0 0.0
2015-Mar-18 17:33N 38°54' W 076°25'0 0.1
2015-Mar-18 16:27N 38°54' W 076°25'0 0.0
2015-Mar-18 15:29N 38°54' W 076°25'0 0.0
2015-Mar-18 14:15N 38°54' W 076°25'0 0.0
2015-Mar-18 13:33N 38°54' W 076°25'0 0.0
2015-Mar-18 12:32N 38°54' W 076°25'0 0.0
2015-Mar-18 11:33N 38°54' W 076°25'0 0.0
2015-Mar-18 10:33N 38°54' W 076°25'0 0.0
2015-Mar-18 09:33N 38°54' W 076°25'0 0.0
2015-Mar-18 08:32N 38°54' W 076°25'0 0.0
2015-Mar-18 07:32N 38°54' W 076°25'0 0.0
2015-Mar-18 06:33N 38°54' W 076°25'0 0.0
2015-Mar-18 05:32N 38°54' W 076°25'  
Track history (hours):
 
Tides and Currents Weather Stations Pressure Air Temp Water Temp Dewpoint Dewpoint Depression Visibility Wind Speed Wind Dir Waves Ship Positions

Heroic Leader

Last reported at 2015-Mar-28 05:28 UTC. Time now 2015-Mar-29 07:29 UTC.
Position N 39°22' W 073°56'.

Length 200 m; draft 9.2 m.

Type: Cargo ship. MMSI: 311052700.

Date/timePositionNaut miles runAvg speedWind from/ knotsBaromVisibWave heightAir tempDewpointWater temp
2015-Mar-28 05:28N 39°22' W 073°56'1415.6
2015-Mar-28 04:33N 39°36' W 073°53'1615.7
2015-Mar-28 03:33N 39°52' W 073°51'1615.8
2015-Mar-28 02:33N 40°08' W 073°50'1010.2
2015-Mar-28 01:33N 40°18' W 073°49'9 9.1
2015-Mar-28 00:33N 40°27' W 073°51'1110.6
2015-Mar-27 23:33N 40°33' W 074°02'8 8.0
2015-Mar-27 22:33N 40°39' W 074°09'2 2.4
2015-Mar-27 21:32N 40°42' W 074°09'0 0.0
2015-Mar-27 20:32N 40°42' W 074°09'0 0.0
2015-Mar-27 19:32N 40°42' W 074°09'0 0.0
2015-Mar-27 18:32N 40°42' W 074°09'0 0.0
2015-Mar-27 17:32N 40°42' W 074°09'0 0.0
2015-Mar-27 16:32N 40°42' W 074°09'0 0.0
2015-Mar-27 15:32N 40°42' W 074°09'0 0.0
2015-Mar-27 14:32N 40°42' W 074°09'0 0.0
2015-Mar-27 13:33N 40°42' W 074°09'0 0.0
2015-Mar-27 12:32N 40°42' W 074°09'0 0.0
2015-Mar-27 11:32N 40°42' W 074°09'0 0.0
2015-Mar-27 10:26N 40°42' W 074°09'0 0.0
2015-Mar-27 09:32N 40°42' W 074°09'0 0.0
2015-Mar-27 08:32N 40°42' W 074°09'0 0.0
2015-Mar-27 07:32N 40°42' W 074°09'0 0.0
2015-Mar-27 06:32N 40°42' W 074°09'0 0.0
2015-Mar-27 05:32N 40°42' W 074°09'0 0.0
2015-Mar-27 04:32N 40°42' W 074°09'0 0.0
2015-Mar-27 03:32N 40°42' W 074°09'0 0.0
2015-Mar-27 02:32N 40°42' W 074°09'0 0.0
2015-Mar-27 01:32N 40°42' W 074°09'0 0.0
2015-Mar-27 00:32N 40°42' W 074°09'0 0.0
2015-Mar-26 23:32N 40°42' W 074°09'3 2.8
2015-Mar-26 22:33N 40°39' W 074°09'6 5.7
2015-Mar-26 21:33N 40°36' W 074°02'1111.1
2015-Mar-26 20:33N 40°28' W 073°52'7 6.5
2015-Mar-26 19:28N 40°22' W 073°47'9 9.7
2015-Mar-26 18:33N 40°13' W 073°45'3014.3
2015-Mar-26 16:25N 39°43' W 073°42'1516.5
2015-Mar-26 15:31N 39°30' W 073°52'6213.9
2015-Mar-26 11:04N 38°46' W 074°47'5 9.5
2015-Mar-26 10:33N 38°46' W 074°53'8 8.5
2015-Mar-26 09:33N 38°48' W 075°03'1414.1
2015-Mar-26 08:33N 39°02' W 075°09'1717.3
2015-Mar-26 07:33N 39°17' W 075°21'1515.2
2015-Mar-26 06:33N 39°28' W 075°34'7 6.6
2015-Mar-26 05:33N 39°33' W 075°40'9 9.5
2015-Mar-26 04:33N 39°32' W 075°52'1212.1
2015-Mar-26 03:33N 39°24' W 076°04'1212.3
2015-Mar-26 02:33N 39°15' W 076°14'1110.5
2015-Mar-26 01:33N 39°11' W 076°27'7 7.2
2015-Mar-26 00:33N 39°15' W 076°35'0 0.0
2015-Mar-25 23:33N 39°15' W 076°35'0 0.0
2015-Mar-25 22:33N 39°15' W 076°35'0 0.0
2015-Mar-25 21:33N 39°15' W 076°35'0 0.0
2015-Mar-25 20:33N 39°15' W 076°35'0 0.0
2015-Mar-25 19:30N 39°15' W 076°35'0 0.0
2015-Mar-25 18:33N 39°15' W 076°35'0 0.0
2015-Mar-25 17:33N 39°15' W 076°35'0 0.0
2015-Mar-25 16:33N 39°15' W 076°35'0 0.0
2015-Mar-25 15:27N 39°15' W 076°35'0 0.0
2015-Mar-25 14:33N 39°15' W 076°35'0 0.0
2015-Mar-25 13:33N 39°15' W 076°35'0 0.0
2015-Mar-25 12:33N 39°15' W 076°35'0 0.0
2015-Mar-25 11:32N 39°15' W 076°35'0 0.0
2015-Mar-25 10:33N 39°15' W 076°35'1 0.8
2015-Mar-25 09:33N 39°15' W 076°34'1 1.2
2015-Mar-25 08:33N 39°15' W 076°32'0 0.0
2015-Mar-25 07:33N 39°15' W 076°32'0 0.0
2015-Mar-25 06:33N 39°15' W 076°32'0 0.0
2015-Mar-25 05:33N 39°15' W 076°32'0 0.0
2015-Mar-25 04:33N 39°15' W 076°32'0 0.0
2015-Mar-25 03:33N 39°15' W 076°32'0 0.0
2015-Mar-25 02:33N 39°15' W 076°32'0 0.0
2015-Mar-25 01:33N 39°15' W 076°32'0 0.0
2015-Mar-25 00:33N 39°15' W 076°32'0 0.0
2015-Mar-24 23:33N 39°15' W 076°32'0 0.0
2015-Mar-24 22:33N 39°15' W 076°32'0 0.0
2015-Mar-24 21:33N 39°15' W 076°32'0 0.0
2015-Mar-24 20:30N 39°15' W 076°32'0 0.0
2015-Mar-24 19:33N 39°15' W 076°32'0 0.0
2015-Mar-24 18:30N 39°15' W 076°32'0 0.0
2015-Mar-24 17:33N 39°15' W 076°32'0 0.0
2015-Mar-24 16:30N 39°15' W 076°32'0 0.0
2015-Mar-24 15:33N 39°15' W 076°32'0 0.0
2015-Mar-24 14:30N 39°15' W 076°32'0 0.0
2015-Mar-24 13:30N 39°15' W 076°32'0 0.0
2015-Mar-24 12:30N 39°15' W 076°32'0 0.0
2015-Mar-24 11:33N 39°15' W 076°32'0 0.0
2015-Mar-24 10:33N 39°15' W 076°32'0 0.0
2015-Mar-24 09:33N 39°15' W 076°32'0 0.0
2015-Mar-24 08:33N 39°15' W 076°32'0 0.0
2015-Mar-24 07:33N 39°15' W 076°32'0 0.0
2015-Mar-24 06:33N 39°15' W 076°32'0 0.0
2015-Mar-24 05:33N 39°15' W 076°32'0 0.0
2015-Mar-24 04:33N 39°15' W 076°32'0 0.0
2015-Mar-24 03:33N 39°15' W 076°32'0 0.0
2015-Mar-24 02:33N 39°15' W 076°32'0 0.0
2015-Mar-24 01:33N 39°15' W 076°32'0 0.0
2015-Mar-24 00:33N 39°15' W 076°32'2 1.6
2015-Mar-23 23:33N 39°13' W 076°32'8 8.0
2015-Mar-23 22:34N 39°08' W 076°24'1313.4
2015-Mar-23 21:33N 38°55' W 076°25'0 0.4
2015-Mar-23 20:33N 38°54' W 076°25'0 0.0
2015-Mar-23 19:33N 38°54' W 076°25'0 0.0
2015-Mar-23 18:33N 38°54' W 076°25'0 0.0
2015-Mar-23 17:33N 38°54' W 076°25'0 0.0
2015-Mar-23 16:33N 38°54' W 076°25'0 0.0
2015-Mar-23 15:27N 38°54' W 076°25'0 0.0
2015-Mar-23 14:33N 38°54' W 076°25'0 0.0
2015-Mar-23 13:33N 38°54' W 076°25'0 0.0
2015-Mar-23 12:24N 38°54' W 076°25'0 0.0
2015-Mar-23 11:33N 38°54' W 076°25'0 0.0
2015-Mar-23 10:27N 38°54' W 076°25'0 0.0
2015-Mar-23 09:27N 38°54' W 076°25'0 0.0
2015-Mar-23 08:33N 38°54' W 076°25'0 0.0
2015-Mar-23 07:33N 38°54' W 076°25'0 0.0
2015-Mar-23 06:33N 38°54' W 076°25'0 0.0
2015-Mar-23 05:33N 38°54' W 076°25'0 0.0
2015-Mar-23 04:30N 38°54' W 076°25'0 0.0
2015-Mar-23 03:33N 38°54' W 076°25'0 0.0
2015-Mar-23 02:33N 38°54' W 076°25'0 0.0
2015-Mar-23 01:33N 38°54' W 076°25'0 0.0
2015-Mar-22 23:30N 38°54' W 076°25'0 0.0
2015-Mar-22 22:33N 38°54' W 076°25'0 0.0
2015-Mar-22 21:21N 38°54' W 076°25'0 0.0
2015-Mar-22 20:33N 38°54' W 076°25'0 0.0
2015-Mar-22 19:33N 38°54' W 076°25'0 0.0
2015-Mar-22 18:33N 38°54' W 076°25'0 0.0
2015-Mar-22 17:30N 38°54' W 076°25'0 0.0
2015-Mar-22 16:33N 38°54' W 076°25'0 0.0
2015-Mar-22 15:30N 38°54' W 076°25'0 0.0
2015-Mar-22 14:33N 38°54' W 076°25'0 0.0
2015-Mar-22 13:33N 38°54' W 076°25'0 0.1
2015-Mar-22 12:33N 38°54' W 076°25'0 0.0
2015-Mar-22 11:30N 38°54' W 076°25'0 0.0
2015-Mar-22 10:33N 38°54' W 076°25'0 0.1
2015-Mar-22 09:30N 38°54' W 076°25'0 0.0
2015-Mar-22 08:33N 38°54' W 076°25'0 0.0
2015-Mar-22 07:30N 38°54' W 076°25'0 0.0
2015-Mar-22 06:33N 38°54' W 076°25'0 0.0
2015-Mar-22 05:33N 38°54' W 076°25'0 0.0
2015-Mar-22 04:33N 38°54' W 076°25'0 0.1
2015-Mar-22 03:33N 38°54' W 076°25'0 0.0
2015-Mar-21 18:30N 38°54' W 076°25'0 0.0
2015-Mar-21 17:18N 38°54' W 076°25'0 0.0
2015-Mar-21 16:18N 38°54' W 076°25'0 0.0
2015-Mar-21 14:24N 38°54' W 076°25'0 0.0
2015-Mar-21 13:33N 38°54' W 076°25'0 0.0
2015-Mar-21 12:30N 38°54' W 076°25'0 0.0
2015-Mar-21 11:33N 38°54' W 076°25'0 0.0
2015-Mar-21 10:33N 38°54' W 076°25'0 0.0
2015-Mar-21 09:33N 38°54' W 076°25'0 0.0
2015-Mar-21 08:33N 38°54' W 076°25'0 0.0
2015-Mar-21 07:33N 38°54' W 076°25'0 0.0
2015-Mar-21 06:30N 38°54' W 076°25'0 0.0
2015-Mar-21 05:24N 38°54' W 076°25'0 0.0
2015-Mar-21 04:33N 38°54' W 076°25'0 0.0
2015-Mar-21 03:33N 38°54' W 076°25'0 0.0
2015-Mar-21 02:33N 38°54' W 076°25'0 0.0
2015-Mar-21 01:30N 38°54' W 076°25'0 0.0
2015-Mar-21 00:21N 38°54' W 076°25'0 0.0
2015-Mar-20 23:33N 38°54' W 076°25'0 0.0
2015-Mar-20 22:33N 38°54' W 076°25'0 0.0
2015-Mar-20 21:24N 38°54' W 076°25'0 0.1
2015-Mar-20 20:33N 38°54' W 076°25'0 0.0
2015-Mar-20 19:21N 38°54' W 076°25'0 0.0
2015-Mar-20 18:21N 38°54' W 076°25'0 0.0
2015-Mar-20 17:33N 38°54' W 076°25'0 0.0
2015-Mar-20 16:30N 38°54' W 076°25'0 0.0
2015-Mar-20 15:33N 38°54' W 076°25'0 0.0
2015-Mar-20 14:33N 38°54' W 076°25'0 0.0
2015-Mar-20 13:33N 38°54' W 076°25'0 0.0
2015-Mar-20 12:33N 38°54' W 076°25'0 0.0
2015-Mar-20 08:06N 38°54' W 076°25'0 0.0
2015-Mar-20 07:24N 38°54' W 076°25'0 0.1
2015-Mar-20 06:30N 38°54' W 076°25'0 0.1
2015-Mar-20 05:30N 38°54' W 076°25'0 0.0
2015-Mar-20 04:33N 38°54' W 076°25'0 0.0
2015-Mar-20 03:33N 38°54' W 076°25'0 0.0
2015-Mar-20 02:27N 38°54' W 076°25'0 0.0
2015-Mar-20 01:33N 38°54' W 076°25'0 0.0
2015-Mar-20 00:33N 38°54' W 076°25'0 0.0
2015-Mar-19 23:15N 38°54' W 076°25'0 0.0
2015-Mar-19 21:06N 38°54' W 076°25'0 0.0
2015-Mar-19 20:06N 38°54' W 076°25'0 0.1
2015-Mar-19 19:15N 38°54' W 076°25'0 0.0
2015-Mar-19 18:33N 38°54' W 076°25'0 0.0
2015-Mar-19 17:33N 38°54' W 076°25'0 0.0
2015-Mar-19 16:33N 38°54' W 076°25'0 0.0
2015-Mar-19 15:33N 38°54' W 076°25'0 0.0
2015-Mar-19 14:33N 38°54' W 076°25'0 0.0
2015-Mar-19 13:33N 38°54' W 076°25'0 0.0
2015-Mar-19 12:33N 38°54' W 076°25'0 0.0
2015-Mar-19 11:33N 38°54' W 076°25'0 0.0
2015-Mar-19 10:33N 38°54' W 076°25'0 0.0
2015-Mar-19 09:12N 38°54' W 076°25'0 0.0
2015-Mar-19 08:30N 38°54' W 076°25'0 0.0
2015-Mar-19 07:33N 38°54' W 076°25'0 0.0
2015-Mar-19 06:33N 38°54' W 076°25'0 0.0
2015-Mar-19 05:33N 38°54' W 076°25'0 0.0
2015-Mar-19 04:33N 38°54' W 076°25'0 0.0
2015-Mar-19 03:33N 38°54' W 076°25'0 0.0
2015-Mar-19 02:33N 38°54' W 076°25'0 0.0
2015-Mar-19 01:33N 38°54' W 076°25'0 0.0
2015-Mar-19 00:33N 38°54' W 076°25'0 0.0
2015-Mar-18 23:33N 38°54' W 076°25'0 0.0
2015-Mar-18 22:33N 38°54' W 076°25'0 0.0
2015-Mar-18 21:33N 38°54' W 076°25'0 0.0
2015-Mar-18 20:32N 38°54' W 076°25'0 0.0
2015-Mar-18 19:33N 38°54' W 076°25'0 0.0
2015-Mar-18 18:33N 38°54' W 076°25'0 0.0
2015-Mar-18 17:33N 38°54' W 076°25'0 0.1
2015-Mar-18 16:27N 38°54' W 076°25'0 0.0
2015-Mar-18 15:29N 38°54' W 076°25'0 0.0
2015-Mar-18 14:15N 38°54' W 076°25'0 0.0
2015-Mar-18 13:33N 38°54' W 076°25'0 0.0
2015-Mar-18 12:32N 38°54' W 076°25'0 0.0
2015-Mar-18 11:33N 38°54' W 076°25'0 0.0
2015-Mar-18 10:33N 38°54' W 076°25'0 0.0
2015-Mar-18 09:33N 38°54' W 076°25'0 0.0
2015-Mar-18 08:32N 38°54' W 076°25'0 0.0
2015-Mar-18 07:32N 38°54' W 076°25'0 0.0
2015-Mar-18 06:33N 38°54' W 076°25'0 0.0
2015-Mar-18 05:32N 38°54' W 076°25'  

Dump ship's entire track history